Time;durP1;ratioP1;P1;durP2;ratioP2;P2;SDS_P1;SDS_P2;PMS_P1;PMS_P2;Temp;Humidity;BMP_temperature;BMP_pressure;BME280_temperature;BME280_humidity;BME280_pressure;Samples;Min_cycle;Max_cycle;Signal;HPM_P1;HPM_P2
2022/08/04 00:02:09;;;;;;;1.95;0.93;;;;;;;;;;4862767;29;20029;-77
2022/08/04 00:04:54;;;;;;;1.23;1.13;;;;;;;;;;4863169;29;20033;-77
2022/08/04 00:07:26;;;;;;;3.60;1.40;;;;;;;;;;4863275;29;20030;-77
2022/08/04 00:09:59;;;;;;;3.42;1.20;;;;;;;;;;4862930;29;20032;-77
2022/08/04 00:12:29;;;;;;;2.40;1.20;;;;;;;;;;4862756;29;20089;-77
2022/08/04 00:14:57;;;;;;;2.25;1.15;;;;;;;;;;4862909;29;20025;-77
2022/08/04 00:17:28;;;;;;;3.22;1.33;;;;;;;;;;4862802;29;20033;-77
2022/08/04 00:19:58;;;;;;;2.85;1.10;;;;;;;;;;4862342;29;20050;-76
2022/08/04 00:22:27;;;;;;;2.17;1.40;;;;;;;;;;4862824;29;20487;-77
2022/08/04 00:24:54;;;;;;;3.78;1.20;;;;;;;;;;4862657;29;20398;-77
2022/08/04 00:27:20;;;;;;;2.03;1.10;;;;;;;;;;4862548;29;20384;-77
2022/08/04 00:29:47;;;;;;;1.60;1.13;;;;;;;;;;4862498;29;20029;-77
2022/08/04 00:32:14;;;;;;;1.30;1.20;;;;;;;;;;4862121;29;20036;-77
2022/08/04 00:34:40;;;;;;;1.40;1.20;;;;;;;;;;4862444;29;20026;-77
2022/08/04 00:37:07;;;;;;;1.40;1.15;;;;;;;;;;4862276;29;20030;-77
2022/08/04 00:39:33;;;;;;;4.57;1.42;;;;;;;;;;4862316;29;20045;-77
2022/08/04 00:42:08;;;;;;;3.30;1.30;;;;;;;;;;4862270;29;20513;-77
2022/08/04 00:44:56;;;;;;;2.92;1.13;;;;;;;;;;4862364;29;20029;-77
2022/08/04 00:47:41;;;;;;;3.85;1.30;;;;;;;;;;4861897;29;20032;-76
2022/08/04 00:50:09;;;;;;;1.90;1.20;;;;;;;;;;4862209;29;20022;-77
2022/08/04 00:52:59;;;;;;;1.48;1.10;;;;;;;;;;4861811;29;20034;-76
2022/08/04 00:55:45;;;;;;;1.70;1.00;;;;;;;;;;4862119;29;20418;-77
2022/08/04 00:58:12;;;;;;;2.05;1.27;;;;;;;;;;4862297;29;20037;-77
2022/08/04 01:00:51;;;;;;;3.08;1.10;;;;;;;;;;4861538;29;20027;-77
2022/08/04 01:03:29;;;;;;;2.42;1.10;;;;;;;;;;4862181;29;20037;-77
2022/08/04 01:05:56;;;;;;;1.67;1.30;;;;;;;;;;4862211;29;20026;-77
2022/08/04 01:08:31;;;;;;;3.78;1.15;;;;;;;;;;4861649;29;20030;-77
2022/08/04 01:11:04;;;;;;;1.17;1.02;;;;;;;;;;4861842;29;20032;-77
2022/08/04 01:13:49;;;;;;;4.57;1.35;;;;;;;;;;4861796;29;20041;-76
2022/08/04 01:16:22;;;;;;;2.17;1.20;;;;;;;;;;4861278;29;20033;-77
2022/08/04 01:19:02;;;;;;;1.25;1.15;;;;;;;;;;4844824;29;20464;-76
2022/08/04 01:21:28;;;;;;;2.30;1.17;;;;;;;;;;4861591;29;20103;-77
2022/08/04 01:24:07;;;;;;;2.22;1.30;;;;;;;;;;4861550;29;20037;-76
2022/08/04 01:26:41;;;;;;;1.67;1.30;;;;;;;;;;4861607;29;20444;-77
2022/08/04 01:29:09;;;;;;;2.80;1.48;;;;;;;;;;4861190;29;20025;-77
2022/08/04 01:31:38;;;;;;;1.50;1.20;;;;;;;;;;4861401;29;20089;-77
2022/08/04 01:34:06;;;;;;;1.30;1.20;;;;;;;;;;4861410;29;20051;-77
2022/08/04 01:36:35;;;;;;;4.25;1.27;;;;;;;;;;4861414;29;20372;-77
2022/08/04 01:41:48;;;;;;;1.73;1.30;;;;;;;;;;4861480;29;20040;-77
2022/08/04 01:44:14;;;;;;;2.17;1.20;;;;;;;;;;4860922;29;20026;-77
2022/08/04 01:46:41;;;;;;;1.27;1.10;;;;;;;;;;4861406;29;20081;-77
2022/08/04 01:49:08;;;;;;;4.68;1.40;;;;;;;;;;4860524;29;20052;-77
2022/08/04 01:51:38;;;;;;;5.65;1.50;;;;;;;;;;4861181;29;20506;-77
2022/08/04 01:54:05;;;;;;;1.67;1.33;;;;;;;;;;4861104;29;20045;-76
2022/08/04 01:56:31;;;;;;;1.50;1.40;;;;;;;;;;4861055;29;20037;-77
2022/08/04 01:58:57;;;;;;;1.83;1.25;;;;;;;;;;4860530;29;20555;-76
2022/08/04 02:01:24;;;;;;;1.27;1.10;;;;;;;;;;4860855;29;20025;-77
2022/08/04 02:03:50;;;;;;;1.50;1.40;;;;;;;;;;4861051;29;20097;-76
2022/08/04 02:06:26;;;;;;;3.47;1.27;;;;;;;;;;4860814;29;20517;-77
2022/08/04 02:09:02;;;;;;;1.40;1.23;;;;;;;;;;4860773;29;20030;-76
2022/08/04 02:11:29;;;;;;;2.53;1.25;;;;;;;;;;4860630;29;20513;-77
2022/08/04 02:14:08;;;;;;;1.77;1.10;;;;;;;;;;4860532;29;20043;-77
2022/08/04 02:16:48;;;;;;;1.98;1.10;;;;;;;;;;4860591;29;20026;-76
2022/08/04 02:19:29;;;;;;;1.52;1.30;;;;;;;;;;4860256;29;20053;-77
2022/08/04 02:21:57;;;;;;;4.22;1.48;;;;;;;;;;4860313;29;20029;-77
2022/08/04 02:24:26;;;;;;;1.67;1.17;;;;;;;;;;4860449;29;20564;-77
2022/08/04 02:26:54;;;;;;;4.50;1.95;;;;;;;;;;4860187;29;20037;-77
2022/08/04 02:29:47;;;;;;;4.30;1.67;;;;;;;;;;4860410;29;20487;-77
2022/08/04 02:32:18;;;;;;;4.13;1.55;;;;;;;;;;4858703;29;20034;-77
2022/08/04 02:34:44;;;;;;;3.15;1.58;;;;;;;;;;4860450;29;20484;-76
2022/08/04 02:37:11;;;;;;;1.98;1.60;;;;;;;;;;4860215;29;20041;-76
2022/08/04 02:39:41;;;;;;;3.45;1.60;;;;;;;;;;4860307;29;20448;-76
2022/08/04 02:42:10;;;;;;;2.45;1.50;;;;;;;;;;4859955;29;20028;-76
2022/08/04 02:44:37;;;;;;;1.90;1.27;;;;;;;;;;4860176;29;20033;-76
2022/08/04 02:47:04;;;;;;;1.60;1.45;;;;;;;;;;4860074;29;20029;-76
2022/08/04 02:49:33;;;;;;;2.58;1.40;;;;;;;;;;4843574;29;20033;-76
2022/08/04 02:51:59;;;;;;;3.90;1.40;;;;;;;;;;4860449;29;20037;-76
2022/08/04 02:54:28;;;;;;;3.38;1.30;;;;;;;;;;4860120;29;20545;-76
2022/08/04 02:56:55;;;;;;;1.40;1.23;;;;;;;;;;4859765;29;20036;-76
2022/08/04 02:59:24;;;;;;;2.83;1.45;;;;;;;;;;4859428;29;20054;-76
2022/08/04 03:01:54;;;;;;;4.75;1.33;;;;;;;;;;4860242;29;20025;-77
2022/08/04 03:04:20;;;;;;;2.95;1.40;;;;;;;;;;4860196;29;20160;-76
2022/08/04 03:06:49;;;;;;;2.33;1.40;;;;;;;;;;4859972;29;20069;-77
2022/08/04 03:09:35;;;;;;;2.83;1.42;;;;;;;;;;4860335;29;20059;-77
2022/08/04 03:12:19;;;;;;;3.75;1.02;;;;;;;;;;4859438;29;20029;-76
2022/08/04 03:14:45;;;;;;;1.52;1.17;;;;;;;;;;4859935;29;20044;-76
2022/08/04 03:17:31;;;;;;;2.88;1.60;;;;;;;;;;4859812;29;20041;-76
2022/08/04 03:19:57;;;;;;;1.50;1.40;;;;;;;;;;4859415;29;20041;-76
2022/08/04 03:22:23;;;;;;;1.88;1.60;;;;;;;;;;4859760;29;20511;-76
2022/08/04 03:25:05;;;;;;;3.42;1.50;;;;;;;;;;4859405;29;20029;-77
2022/08/04 03:27:40;;;;;;;2.03;1.55;;;;;;;;;;4860030;29;20040;-76
2022/08/04 03:30:14;;;;;;;3.08;1.35;;;;;;;;;;4859797;29;20089;-76
2022/08/04 03:32:59;;;;;;;1.70;1.40;;;;;;;;;;4859887;29;20025;-76
2022/08/04 03:35:54;;;;;;;1.65;1.55;;;;;;;;;;4859672;29;20436;-76
2022/08/04 03:38:21;;;;;;;2.53;1.70;;;;;;;;;;4805521;29;20054;-76
2022/08/04 03:40:47;;;;;;;1.63;1.30;;;;;;;;;;4820615;29;20049;-77
2022/08/04 03:43:25;;;;;;;1.45;1.30;;;;;;;;;;4820940;29;20045;-76
2022/08/04 03:45:58;;;;;;;1.88;1.55;;;;;;;;;;4820918;29;20573;-76
2022/08/04 03:48:27;;;;;;;3.55;1.70;;;;;;;;;;4805384;29;20411;-76
2022/08/04 03:54:19;;;;;;;3.53;1.40;;;;;;;;;;4784087;29;20043;-76
2022/08/04 03:56:57;;;;;;;2.95;1.52;;;;;;;;;;4784636;30;20035;-76
2022/08/04 03:59:41;;;;;;;4.45;1.50;;;;;;;;;;4784490;29;20404;-76
2022/08/04 04:02:16;;;;;;;5.63;1.45;;;;;;;;;;4784589;30;20043;-76
2022/08/04 04:04:49;;;;;;;1.42;1.33;;;;;;;;;;4784417;30;20035;-76
2022/08/04 04:07:21;;;;;;;1.38;1.15;;;;;;;;;;4784532;29;20043;-76
2022/08/04 04:10:06;;;;;;;1.67;1.40;;;;;;;;;;4783934;29;20598;-76
2022/08/04 04:12:49;;;;;;;5.18;1.67;;;;;;;;;;4787665;30;20039;-76
2022/08/04 04:15:33;;;;;;;1.90;1.45;;;;;;;;;;4800563;29;20481;-76
2022/08/04 04:18:06;;;;;;;5.90;2.72;;;;;;;;;;4790388;29;20055;-76
2022/08/04 04:20:50;;;;;;;3.38;2.55;;;;;;;;;;4799561;29;20563;-76
2022/08/04 04:23:49;;;;;;;2.53;1.40;;;;;;;;;;4787118;29;20562;-76
2022/08/04 04:26:27;;;;;;;2.45;1.85;;;;;;;;;;4716802;30;20051;-76
2022/08/04 04:29:12;;;;;;;4.18;1.40;;;;;;;;;;4717131;30;20051;-76
2022/08/04 04:31:38;;;;;;;2.70;1.90;;;;;;;;;;4734233;30;20041;-76
2022/08/04 04:34:05;;;;;;;7.45;1.98;;;;;;;;;;4734202;30;20157;-76
2022/08/04 04:36:37;;;;;;;5.80;1.67;;;;;;;;;;4734120;30;20071;-76
2022/08/04 04:39:03;;;;;;;3.63;1.60;;;;;;;;;;4733675;30;20049;-76
2022/08/04 04:41:29;;;;;;;5.70;2.05;;;;;;;;;;4734314;30;20040;-76
2022/08/04 04:44:22;;;;;;;11.45;1.90;;;;;;;;;;4733894;30;20115;-76
2022/08/04 04:46:53;;;;;;;5.30;1.70;;;;;;;;;;4732667;30;20045;-76
2022/08/04 04:49:32;;;;;;;4.03;1.50;;;;;;;;;;4733887;30;20427;-76
2022/08/04 04:52:08;;;;;;;6.28;1.70;;;;;;;;;;4733858;30;20040;-76
2022/08/04 04:54:39;;;;;;;10.75;1.67;;;;;;;;;;4734115;30;20056;-76
2022/08/04 04:57:05;;;;;;;;;;;;;;;;;;4734169;30;20040;-76
2022/08/04 04:59:36;;;;;;;7.35;1.63;;;;;;;;;;4733707;30;19928;-76
2022/08/04 05:02:06;;;;;;;9.48;1.92;;;;;;;;;;4797772;29;20042;-76
2022/08/04 05:04:44;;;;;;;10.48;1.83;;;;;;;;;;4843569;29;20030;-76
2022/08/04 05:07:37;;;;;;;8.90;2.00;;;;;;;;;;4843061;29;20024;-76
2022/08/04 05:10:04;;;;;;;29.40;1.90;;;;;;;;;;4843271;29;20040;-76
2022/08/04 05:12:42;;;;;;;11.23;2.00;;;;;;;;;;4843290;29;20022;-76
2022/08/04 05:15:09;;;;;;;26.92;2.75;;;;;;;;;;4843461;29;20029;-76
2022/08/04 05:17:45;;;;;;;12.35;2.53;;;;;;;;;;4843180;29;20026;-76
2022/08/04 05:20:19;;;;;;;29.00;2.72;;;;;;;;;;4858473;29;20039;-76
2022/08/04 05:23:12;;;;;;;17.83;2.30;;;;;;;;;;4860815;29;20038;-76
2022/08/04 05:25:40;;;;;;;21.08;2.15;;;;;;;;;;4861562;29;20017;-76
2022/08/04 05:28:11;;;;;;;24.98;2.40;;;;;;;;;;4861592;29;20209;-76
2022/08/04 05:30:47;;;;;;;15.45;2.17;;;;;;;;;;4861480;29;20021;-76
2022/08/04 05:33:15;;;;;;;19.80;2.92;;;;;;;;;;4861617;29;20038;-76
2022/08/04 05:35:43;;;;;;;22.73;2.38;;;;;;;;;;4861024;29;20043;-76
2022/08/04 05:38:11;;;;;;;13.70;2.25;;;;;;;;;;4861299;29;20509;-76
2022/08/04 05:40:39;;;;;;;16.65;2.20;;;;;;;;;;4861268;29;20037;-76
2022/08/04 05:43:05;;;;;;;16.70;2.30;;;;;;;;;;4861194;29;20029;-76
2022/08/04 05:45:34;;;;;;;17.38;2.30;;;;;;;;;;4861480;29;20033;-76
2022/08/04 05:48:04;;;;;;;21.45;2.35;;;;;;;;;;4861267;29;20022;-76
2022/08/04 05:50:32;;;;;;;16.15;2.40;;;;;;;;;;4860979;29;20044;-76
2022/08/04 05:52:59;;;;;;;25.17;2.75;;;;;;;;;;4861156;29;20037;-76
2022/08/04 05:55:26;;;;;;;24.25;3.08;;;;;;;;;;4861099;29;20037;-76
2022/08/04 05:57:53;;;;;;;18.90;2.20;;;;;;;;;;4861027;29;20033;-76
2022/08/04 06:00:19;;;;;;;22.58;2.75;;;;;;;;;;4860811;29;20130;-77
2022/08/04 06:02:46;;;;;;;13.00;2.30;;;;;;;;;;4860895;29;20393;-76
2022/08/04 06:05:14;;;;;;;12.57;2.20;;;;;;;;;;4860483;29;20077;-76
2022/08/04 06:07:41;;;;;;;15.35;2.30;;;;;;;;;;4861125;29;20025;-76
2022/08/04 06:10:07;;;;;;;10.13;2.38;;;;;;;;;;4860930;29;20029;-76
2022/08/04 06:12:37;;;;;;;12.73;1.90;;;;;;;;;;4842700;29;20040;-63
2022/08/04 06:15:04;;;;;;;15.88;2.30;;;;;;;;;;4839492;29;20033;-65
2022/08/04 06:17:32;;;;;;;14.02;2.10;;;;;;;;;;4843812;29;20040;-63
2022/08/04 06:19:59;;;;;;;17.88;2.08;;;;;;;;;;4853829;29;20431;-64
2022/08/04 06:22:27;;;;;;;14.10;2.38;;;;;;;;;;4847442;29;20026;-64
2022/08/04 06:24:54;;;;;;;18.80;2.50;;;;;;;;;;4841092;29;20522;-64
2022/08/04 06:27:22;;;;;;;15.10;2.58;;;;;;;;;;4840933;29;20037;-64
2022/08/04 06:29:49;;;;;;;13.77;2.60;;;;;;;;;;4841327;29;20021;-64
2022/08/04 06:32:25;;;;;;;19.60;2.40;;;;;;;;;;4831089;29;20037;-64
2022/08/04 06:34:56;;;;;;;15.52;2.75;;;;;;;;;;4840852;29;20403;-64
2022/08/04 06:37:22;;;;;;;20.90;2.60;;;;;;;;;;4839220;29;20038;-64
2022/08/04 06:39:50;;;;;;;6.75;2.10;;;;;;;;;;4840420;29;20034;-65
2022/08/04 06:42:18;;;;;;;11.15;2.17;;;;;;;;;;4840525;29;20022;-65
2022/08/04 06:44:45;;;;;;;16.38;2.55;;;;;;;;;;4840259;29;20033;-64
2022/08/04 06:47:12;;;;;;;12.40;2.35;;;;;;;;;;4840794;29;20022;-64
2022/08/04 06:49:39;;;;;;;7.25;2.13;;;;;;;;;;4840338;29;20030;-64
2022/08/04 06:52:06;;;;;;;16.10;2.70;;;;;;;;;;4849493;29;20042;-65
2022/08/04 06:54:32;;;;;;;9.00;1.90;;;;;;;;;;4840915;29;20030;-64
2022/08/04 06:56:58;;;;;;;8.40;1.90;;;;;;;;;;4841260;29;20029;-65
2022/08/04 06:59:26;;;;;;;6.25;2.38;;;;;;;;;;4840918;29;20038;-64
2022/08/04 07:01:53;;;;;;;2.10;1.77;;;;;;;;;;4840972;29;20506;-64
2022/08/04 07:04:19;;;;;;;5.80;1.98;;;;;;;;;;4840102;29;20034;-64
2022/08/04 07:06:45;;;;;;;8.70;2.63;;;;;;;;;;4840917;29;20063;-64
2022/08/04 07:09:12;;;;;;;5.35;2.53;;;;;;;;;;4840958;29;20041;-64
2022/08/04 07:11:38;;;;;;;7.30;2.15;;;;;;;;;;4840792;29;20366;-64
2022/08/04 07:14:05;;;;;;;6.05;2.30;;;;;;;;;;4841149;29;20054;-64
2022/08/04 07:16:31;;;;;;;6.40;2.17;;;;;;;;;;4824322;29;20038;-66
2022/08/04 07:18:58;;;;;;;8.95;3.13;;;;;;;;;;4846777;29;20444;-64
2022/08/04 07:21:25;;;;;;;3.75;2.83;;;;;;;;;;4859159;29;20518;-64
2022/08/04 07:23:52;;;;;;;4.70;3.08;;;;;;;;;;4859218;29;20036;-64
2022/08/04 07:26:18;;;;;;;8.07;2.70;;;;;;;;;;4859184;29;20029;-64
2022/08/04 07:28:45;;;;;;;4.78;2.72;;;;;;;;;;4859492;29;20085;-64
2022/08/04 07:31:17;;;;;;;3.17;2.53;;;;;;;;;;4858803;29;20033;-64
2022/08/04 07:33:44;;;;;;;3.75;2.60;;;;;;;;;;4858715;29;20030;-63
2022/08/04 07:36:10;;;;;;;7.15;2.40;;;;;;;;;;4843703;29;20552;-63
2022/08/04 07:38:41;;;;;;;7.97;3.70;;;;;;;;;;4840618;29;20040;-64
2022/08/04 07:41:07;;;;;;;6.25;3.80;;;;;;;;;;4840612;29;20038;-65
2022/08/04 07:43:35;;;;;;;7.20;2.70;;;;;;;;;;4840607;29;20026;-65
2022/08/04 07:46:02;;;;;;;6.28;3.15;;;;;;;;;;4841225;29;20022;-65
2022/08/04 07:48:29;;;;;;;4.07;2.55;;;;;;;;;;4844146;29;20034;-65
2022/08/04 07:50:55;;;;;;;8.57;2.40;;;;;;;;;;4844324;29;20034;-65
2022/08/04 07:53:22;;;;;;;7.53;2.63;;;;;;;;;;4843599;29;20042;-65
2022/08/04 07:55:49;;;;;;;3.50;2.15;;;;;;;;;;4843379;29;20038;-65
2022/08/04 07:58:15;;;;;;;3.40;2.55;;;;;;;;;;4844022;29;20026;-65
2022/08/04 08:00:44;;;;;;;8.77;2.35;;;;;;;;;;4843160;29;20447;-65
2022/08/04 08:03:10;;;;;;;10.35;2.35;;;;;;;;;;4843886;29;20022;-65
2022/08/04 08:05:38;;;;;;;6.47;2.50;;;;;;;;;;4844465;29;20026;-65
2022/08/04 08:08:04;;;;;;;6.20;2.20;;;;;;;;;;4844282;29;20028;-64
2022/08/04 08:10:31;;;;;;;7.18;2.30;;;;;;;;;;4843934;29;20037;-63
2022/08/04 08:12:57;;;;;;;8.30;2.60;;;;;;;;;;4844176;29;20069;-64
2022/08/04 08:15:24;;;;;;;3.85;2.30;;;;;;;;;;4844143;29;20034;-63
2022/08/04 08:17:51;;;;;;;8.55;2.30;;;;;;;;;;4843780;29;20046;-64
2022/08/04 08:20:17;;;;;;;7.65;2.72;;;;;;;;;;4847028;29;20037;-64
2022/08/04 08:22:43;;;;;;;6.20;2.10;;;;;;;;;;4833634;29;20030;-64
2022/08/04 08:25:11;;;;;;;5.35;2.22;;;;;;;;;;4843365;29;20036;-64
2022/08/04 08:27:37;;;;;;;5.30;2.20;;;;;;;;;;4843452;29;20033;-64
2022/08/04 08:30:04;;;;;;;3.25;2.42;;;;;;;;;;4842778;29;20403;-64
2022/08/04 08:32:30;;;;;;;12.13;2.42;;;;;;;;;;4843413;29;20034;-64
2022/08/04 08:34:57;;;;;;;3.92;2.28;;;;;;;;;;4843717;29;20032;-64
2022/08/04 08:37:23;;;;;;;7.40;2.25;;;;;;;;;;4843004;29;20033;-63
2022/08/04 08:39:59;;;;;;;3.45;2.00;;;;;;;;;;4842950;29;20042;-63
2022/08/04 08:42:28;;;;;;;9.25;2.17;;;;;;;;;;4843219;29;20427;-64
2022/08/04 08:45:13;;;;;;;2.88;2.20;;;;;;;;;;4843102;29;20034;-63
2022/08/04 08:47:58;;;;;;;12.27;4.97;;;;;;;;;;4841187;29;20077;-64
2022/08/04 08:50:30;;;;;;;7.45;2.05;;;;;;;;;;4842605;29;20037;-63
2022/08/04 08:53:03;;;;;;;6.05;2.25;;;;;;;;;;4842563;29;20032;-64
2022/08/04 08:55:30;;;;;;;8.57;3.30;;;;;;;;;;4826255;29;20496;-63
2022/08/04 08:58:00;;;;;;;6.47;2.08;;;;;;;;;;4841369;29;20053;-63
2022/08/04 09:00:49;;;;;;;2.42;1.83;;;;;;;;;;4842079;29;20056;-64
2022/08/04 09:03:34;;;;;;;6.50;1.83;;;;;;;;;;4839852;29;20149;-77
2022/08/04 09:06:18;;;;;;;5.97;1.85;;;;;;;;;;4842427;29;20026;-77
2022/08/04 09:09:03;;;;;;;9.00;2.20;;;;;;;;;;4842627;29;20026;-77
2022/08/04 09:11:34;;;;;;;5.38;1.80;;;;;;;;;;4842545;29;20669;-77
2022/08/04 09:14:15;;;;;;;2.55;1.80;;;;;;;;;;4842017;29;20440;-77
2022/08/04 09:16:41;;;;;;;3.67;1.88;;;;;;;;;;4842475;29;20030;-77
2022/08/04 09:19:15;;;;;;;7.60;2.00;;;;;;;;;;4849527;29;20412;-77
2022/08/04 09:21:53;;;;;;;4.28;2.05;;;;;;;;;;4845494;29;20040;-77
2022/08/04 09:24:27;;;;;;;5.32;1.88;;;;;;;;;;4841894;29;20030;-77
2022/08/04 09:27:13;;;;;;;2.80;1.83;;;;;;;;;;4842227;29;20032;-77
2022/08/04 09:29:39;;;;;;;1.60;1.50;;;;;;;;;;4842081;29;20065;-77
2022/08/04 09:32:08;;;;;;;4.72;1.70;;;;;;;;;;4842191;29;20034;-76
2022/08/04 09:34:55;;;;;;;4.93;1.80;;;;;;;;;;4841905;29;20034;-77
2022/08/04 09:37:21;;;;;;;5.45;1.42;;;;;;;;;;4841683;29;20034;-77
2022/08/04 09:39:47;;;;;;;2.47;1.40;;;;;;;;;;4841422;29;20044;-77
2022/08/04 09:42:14;;;;;;;1.83;1.65;;;;;;;;;;4841918;29;20026;-77
2022/08/04 09:44:48;;;;;;;6.00;1.40;;;;;;;;;;4841577;29;20090;-77
2022/08/04 09:47:20;;;;;;;5.28;1.08;;;;;;;;;;4841882;29;20059;-77
2022/08/04 09:49:52;;;;;;;4.32;1.70;;;;;;;;;;4842122;29;20032;-77
2022/08/04 09:52:24;;;;;;;4.95;1.60;;;;;;;;;;4842333;29;20026;-77
2022/08/04 09:54:50;;;;;;;13.25;1.30;;;;;;;;;;4841877;29;20444;-77
2022/08/04 09:57:23;;;;;;;5.22;0.85;;;;;;;;;;4841337;29;20018;-77
2022/08/04 09:59:49;;;;;;;5.35;1.05;;;;;;;;;;4825640;29;20093;-77
2022/08/04 10:02:18;;;;;;;3.53;1.08;;;;;;;;;;4842204;29;20030;-77
2022/08/04 10:04:44;;;;;;;1.58;0.82;;;;;;;;;;4841610;29;20037;-77
2022/08/04 10:07:26;;;;;;;4.47;1.13;;;;;;;;;;4842012;29;20030;-77
2022/08/04 10:10:01;;;;;;;4.05;1.00;;;;;;;;;;4841662;29;20032;-77
2022/08/04 10:12:46;;;;;;;4.32;0.98;;;;;;;;;;4841733;29;20385;-77
2022/08/04 10:15:15;;;;;;;1.50;0.80;;;;;;;;;;4841918;29;20492;-77
2022/08/04 10:18:00;;;;;;;1.90;0.90;;;;;;;;;;4842195;29;20042;-77
2022/08/04 10:20:44;;;;;;;1.65;0.90;;;;;;;;;;4842572;29;20050;-77
2022/08/04 10:23:14;;;;;;;1.58;0.82;;;;;;;;;;4860246;29;20033;-77
2022/08/04 10:25:59;;;;;;;1.38;1.02;;;;;;;;;;4859980;29;20060;-78
2022/08/04 10:28:27;;;;;;;1.52;1.00;;;;;;;;;;4860249;29;20495;-77
2022/08/04 10:31:02;;;;;;;3.65;0.70;;;;;;;;;;4860330;29;20498;-77
2022/08/04 10:33:34;;;;;;;1.02;0.70;;;;;;;;;;4860335;29;20030;-77
2022/08/04 10:36:02;;;;;;;3.30;0.80;;;;;;;;;;4860336;29;20402;-82
2022/08/04 10:38:30;;;;;;;0.60;0.60;;;;;;;;;;4860184;29;20029;-86
2022/08/04 10:41:06;;;;;;;0.65;0.65;;;;;;;;;;4859858;29;20037;-84
2022/08/04 10:43:35;;;;;;;0.98;0.70;;;;;;;;;;4844000;29;20033;-82
2022/08/04 10:46:04;;;;;;;3.00;0.70;;;;;;;;;;4841535;29;20029;-86
2022/08/04 10:48:40;;;;;;;3.67;0.90;;;;;;;;;;4841565;29;20410;-86
2022/08/04 10:51:25;;;;;;;1.77;0.75;;;;;;;;;;4841724;29;20025;-86
2022/08/04 10:54:00;;;;;;;1.17;0.80;;;;;;;;;;4841256;29;20379;-86
2022/08/04 10:56:37;;;;;;;1.75;0.88;;;;;;;;;;4841013;29;20518;-86
2022/08/04 10:59:07;;;;;;;2.63;0.85;;;;;;;;;;4841348;29;20094;-86
2022/08/04 11:01:40;;;;;;;5.22;0.90;;;;;;;;;;4841551;29;20030;-86
2022/08/04 11:04:15;;;;;;;0.95;0.80;;;;;;;;;;4841173;29;20030;-86
2022/08/04 11:06:43;;;;;;;1.45;0.65;;;;;;;;;;4841127;29;20045;-86
2022/08/04 11:09:10;;;;;;;2.35;0.93;;;;;;;;;;4840833;29;20410;-86
2022/08/04 11:11:43;;;;;;;1.15;1.00;;;;;;;;;;4841191;29;20476;-86
2022/08/04 11:14:17;;;;;;;3.28;0.90;;;;;;;;;;4841521;29;20086;-85
2022/08/04 11:16:44;;;;;;;1.73;0.93;;;;;;;;;;4824915;29;20040;-86
2022/08/04 11:19:29;;;;;;;1.95;0.95;;;;;;;;;;4832194;29;20053;-86
2022/08/04 11:21:57;;;;;;;2.95;1.17;;;;;;;;;;4858609;29;20033;-85
2022/08/04 11:24:35;;;;;;;3.08;0.80;;;;;;;;;;4859157;29;20081;-86
2022/08/04 11:27:04;;;;;;;1.83;0.90;;;;;;;;;;4859656;29;20034;-86
2022/08/04 11:29:31;;;;;;;4.50;1.20;;;;;;;;;;4859412;29;20029;-86
2022/08/04 11:32:00;;;;;;;2.25;1.30;;;;;;;;;;4859097;29;20048;-86
2022/08/04 11:34:27;;;;;;;1.10;1.00;;;;;;;;;;4850839;29;20041;-86
2022/08/04 11:36:56;;;;;;;1.45;1.13;;;;;;;;;;4840425;29;20038;-85
2022/08/04 11:39:33;;;;;;;1.55;0.88;;;;;;;;;;4840073;29;20034;-86
2022/08/04 11:41:59;;;;;;;1.65;1.00;;;;;;;;;;4837164;29;20038;-87
2022/08/04 11:44:28;;;;;;;1.23;1.10;;;;;;;;;;4815418;29;20444;-87
2022/08/04 11:46:58;;;;;;;0.82;0.82;;;;;;;;;;4840117;29;20033;-87
2022/08/04 11:49:28;;;;;;;1.45;1.05;;;;;;;;;;4841205;29;20044;-87
2022/08/04 11:51:55;;;;;;;7.83;1.40;;;;;;;;;;4839564;29;20034;-87
2022/08/04 11:54:22;;;;;;;2.17;1.13;;;;;;;;;;4838370;29;20442;-87
2022/08/04 11:56:48;;;;;;;2.47;1.20;;;;;;;;;;4839344;29;20385;-87
2022/08/04 11:59:14;;;;;;;2.20;1.35;;;;;;;;;;4823195;29;20360;-87
2022/08/04 12:01:52;;;;;;;1.52;1.23;;;;;;;;;;4852761;29;20036;-88
2022/08/04 12:04:25;;;;;;;4.82;1.50;;;;;;;;;;4829515;29;20022;-89
2022/08/04 12:07:10;;;;;;;1.83;1.38;;;;;;;;;;4839472;29;20054;-87
2022/08/04 12:09:39;;;;;;;5.72;1.58;;;;;;;;;;4839782;29;20032;-89
2022/08/04 12:12:06;;;;;;;1.77;1.40;;;;;;;;;;4840041;29;20460;-88
2022/08/04 12:14:32;;;;;;;2.25;1.20;;;;;;;;;;4839927;29;20022;-82
2022/08/04 12:17:02;;;;;;;3.13;1.40;;;;;;;;;;4835586;29;20040;-91
2022/08/04 12:19:29;;;;;;;;;;;;;;;;;;4840432;29;20056;-87
2022/08/04 12:21:58;;;;;;;3.20;1.30;;;;;;;;;;4855704;29;19915;-88
2022/08/04 12:24:32;;;;;;;2.95;1.30;;;;;;;;;;4838505;29;20407;-83
2022/08/04 12:27:03;;;;;;;4.47;1.10;;;;;;;;;;4838866;29;20405;-85
2022/08/04 12:29:33;;;;;;;3.40;1.20;;;;;;;;;;4839036;29;20038;-87
2022/08/04 12:32:20;;;;;;;1.60;1.20;;;;;;;;;;4840758;29;20022;-86
2022/08/04 12:34:55;;;;;;;1.45;1.10;;;;;;;;;;4843982;29;20042;-91
2022/08/04 12:37:26;;;;;;;2.22;1.50;;;;;;;;;;4842343;29;20041;-84
2022/08/04 12:39:53;;;;;;;5.40;1.48;;;;;;;;;;4842398;29;20050;-85
2022/08/04 12:42:19;;;;;;;3.95;1.27;;;;;;;;;;4842678;29;20034;-84
2022/08/04 12:44:52;;;;;;;1.90;1.20;;;;;;;;;;4842521;29;20114;-85
2022/08/04 12:47:22;;;;;;;3.38;1.20;;;;;;;;;;4842398;29;20029;-85
2022/08/04 12:49:49;;;;;;;5.25;1.60;;;;;;;;;;4842525;29;20488;-88
2022/08/04 12:52:16;;;;;;;1.92;1.58;;;;;;;;;;4841354;29;20469;-88
2022/08/04 12:54:45;;;;;;;2.35;1.20;;;;;;;;;;4842588;29;20098;-86
2022/08/04 12:57:12;;;;;;;2.40;1.10;;;;;;;;;;4842329;29;20030;-87
2022/08/04 12:59:46;;;;;;;1.73;1.30;;;;;;;;;;4841682;29;20045;-75
2022/08/04 13:02:18;;;;;;;1.75;1.10;;;;;;;;;;4823929;29;20037;-76
2022/08/04 13:04:45;;;;;;;1.48;1.33;;;;;;;;;;4830853;29;20033;-72
2022/08/04 13:07:18;;;;;;;6.55;1.35;;;;;;;;;;4825615;29;20041;-82
2022/08/04 13:09:44;;;;;;;2.10;1.30;;;;;;;;;;4841637;29;20034;-83
2022/08/04 13:12:16;;;;;;;3.78;1.25;;;;;;;;;;4843680;29;20422;-82
2022/08/04 13:14:43;;;;;;;2.03;1.25;;;;;;;;;;4842120;29;20040;-84
2022/08/04 13:17:10;;;;;;;2.22;1.45;;;;;;;;;;4841321;29;20030;-83
2022/08/04 13:19:37;;;;;;;2.38;1.40;;;;;;;;;;4836038;29;20063;-77
2022/08/04 13:22:03;;;;;;;2.50;1.48;;;;;;;;;;4860357;29;20037;-83
2022/08/04 13:24:31;;;;;;;4.00;1.50;;;;;;;;;;4860373;29;20037;-81
2022/08/04 13:27:11;;;;;;;2.22;1.30;;;;;;;;;;4839575;29;20030;-80
2022/08/04 13:29:39;;;;;;;1.40;1.30;;;;;;;;;;4841142;29;20036;-80
2022/08/04 13:32:07;;;;;;;1.85;1.17;;;;;;;;;;4825190;29;20033;-80
2022/08/04 13:34:34;;;;;;;2.42;1.38;;;;;;;;;;4840794;29;20033;-81
2022/08/04 13:37:04;;;;;;;4.10;1.30;;;;;;;;;;4841781;29;20032;-81
2022/08/04 13:39:31;;;;;;;6.82;1.52;;;;;;;;;;4841017;29;20060;-80
2022/08/04 13:42:00;;;;;;;2.10;1.45;;;;;;;;;;4841541;29;20385;-81
2022/08/04 13:44:30;;;;;;;1.67;1.35;;;;;;;;;;4840981;29;20510;-81
2022/08/04 13:47:05;;;;;;;1.65;1.30;;;;;;;;;;4841136;29;20419;-82
2022/08/04 13:49:31;;;;;;;3.58;1.80;;;;;;;;;;4833846;29;20050;-81
2022/08/04 13:52:02;;;;;;;3.55;1.60;;;;;;;;;;4841072;29;20028;-81
2022/08/04 13:54:44;;;;;;;2.20;1.50;;;;;;;;;;4841094;29;20033;-81
2022/08/04 13:57:12;;;;;;;6.00;1.50;;;;;;;;;;4840698;29;20029;-81
2022/08/04 13:59:39;;;;;;;2.40;1.30;;;;;;;;;;4841123;29;20037;-81
2022/08/04 14:02:08;;;;;;;6.45;1.30;;;;;;;;;;4840904;29;20048;-80
2022/08/04 14:04:39;;;;;;;1.50;1.40;;;;;;;;;;4841148;29;20058;-79
2022/08/04 14:07:18;;;;;;;3.42;1.55;;;;;;;;;;4840994;29;20034;-81
2022/08/04 14:09:44;;;;;;;6.35;1.70;;;;;;;;;;4841077;29;20026;-79
2022/08/04 14:12:12;;;;;;;3.35;1.45;;;;;;;;;;4850389;29;20045;-81
2022/08/04 14:14:46;;;;;;;2.88;1.55;;;;;;;;;;4853399;29;20029;-82
2022/08/04 14:17:15;;;;;;;2.70;1.40;;;;;;;;;;4837157;29;20023;-79
2022/08/04 14:19:47;;;;;;;1.55;1.45;;;;;;;;;;4842333;29;20064;-80
2022/08/04 14:22:26;;;;;;;1.50;1.40;;;;;;;;;;4835769;29;20046;-81
2022/08/04 14:24:59;;;;;;;3.63;1.30;;;;;;;;;;4841069;29;20164;-80
2022/08/04 14:27:28;;;;;;;1.90;1.45;;;;;;;;;;4840918;29;20033;-80
2022/08/04 14:29:54;;;;;;;1.90;1.60;;;;;;;;;;4841145;29;20030;-80
2022/08/04 14:32:21;;;;;;;3.88;1.50;;;;;;;;;;4840624;29;20708;-81
2022/08/04 14:34:47;;;;;;;1.55;1.45;;;;;;;;;;4841031;29;20037;-80
2022/08/04 14:37:15;;;;;;;2.58;1.67;;;;;;;;;;4840876;29;20036;-80
2022/08/04 14:39:46;;;;;;;4.20;1.80;;;;;;;;;;4824326;29;20109;-82
2022/08/04 14:42:14;;;;;;;3.00;1.58;;;;;;;;;;4838669;29;20533;-83
2022/08/04 14:44:56;;;;;;;5.10;1.60;;;;;;;;;;4840597;29;20026;-81
2022/08/04 14:47:41;;;;;;;2.03;1.85;;;;;;;;;;4839890;29;20461;-81
2022/08/04 14:50:08;;;;;;;4.18;1.35;;;;;;;;;;4840449;29;20504;-80
2022/08/04 14:52:34;;;;;;;2.03;1.80;;;;;;;;;;4840374;29;20036;-81
2022/08/04 14:55:30;;;;;;;2.42;2.10;;;;;;;;;;4840341;29;20022;-80
2022/08/04 14:57:57;;;;;;;2.58;2.10;;;;;;;;;;4824818;29;20042;-82
2022/08/04 15:00:27;;;;;;;2.30;2.10;;;;;;;;;;4840296;29;20038;-81
2022/08/04 15:02:56;;;;;;;2.88;2.17;;;;;;;;;;4840231;29;20036;-80
2022/08/04 15:05:23;;;;;;;3.50;2.10;;;;;;;;;;4840357;29;20065;-81
2022/08/04 15:07:49;;;;;;;3.17;2.00;;;;;;;;;;4840279;29;20024;-82
2022/08/04 15:10:16;;;;;;;3.05;1.98;;;;;;;;;;4840469;29;20503;-82
2022/08/04 15:12:43;;;;;;;2.53;2.13;;;;;;;;;;4853943;29;20044;-82